createdAt,value
2019-03-20T00:02:14.790Z,3.80
2019-03-20T00:04:49.757Z,3.70
2019-03-20T00:07:11.771Z,3.60
2019-03-20T00:09:39.419Z,3.50
2019-03-20T00:12:06.921Z,3.60
2019-03-20T00:14:34.929Z,3.60
2019-03-20T00:17:04.054Z,3.60
2019-03-20T00:19:31.863Z,3.70
2019-03-20T00:21:59.768Z,3.70
2019-03-20T00:24:27.522Z,3.70
2019-03-20T00:26:54.938Z,3.70
2019-03-20T00:29:24.072Z,3.70
2019-03-20T00:31:51.512Z,3.70
2019-03-20T00:34:19.305Z,3.50
2019-03-20T00:36:47.033Z,3.60
2019-03-20T00:39:14.496Z,3.60
2019-03-20T00:41:42.020Z,3.60
2019-03-20T00:44:09.992Z,3.60
2019-03-20T00:46:38.605Z,3.50
2019-03-20T00:49:06.322Z,3.50
2019-03-20T00:51:34.232Z,3.50
2019-03-20T00:54:02.056Z,3.50
2019-03-20T00:56:29.652Z,3.40
2019-03-20T00:58:57.153Z,3.30
2019-03-20T01:01:24.499Z,3.40
2019-03-20T01:03:52.274Z,3.30
2019-03-20T01:06:19.671Z,3.30
2019-03-20T01:08:47.411Z,3.20
2019-03-20T01:11:15.370Z,3.20
2019-03-20T01:13:42.828Z,3.30
2019-03-20T01:16:10.239Z,3.20
2019-03-20T01:18:37.930Z,3.20
2019-03-20T01:21:05.424Z,3.20
2019-03-20T01:23:33.156Z,3.20
2019-03-20T01:26:01.615Z,3.20
2019-03-20T01:28:29.367Z,3.10
2019-03-20T01:30:57.261Z,3.10
2019-03-20T01:33:24.575Z,3.10
2019-03-20T01:35:52.425Z,3.10
2019-03-20T01:38:20.144Z,3.00
2019-03-20T01:40:47.788Z,3.10
2019-03-20T01:43:15.873Z,3.10
2019-03-20T01:45:43.743Z,3.10
2019-03-20T01:48:11.055Z,3.10
2019-03-20T01:50:38.749Z,3.00
2019-03-20T01:53:06.420Z,3.00
2019-03-20T01:55:34.080Z,3.00
2019-03-20T01:58:01.437Z,3.00
2019-03-20T02:00:29.107Z,2.90
2019-03-20T02:02:56.564Z,2.90
2019-03-20T02:05:34.709Z,2.80
2019-03-20T02:07:53.460Z,2.80
2019-03-20T02:10:21.149Z,2.80
2019-03-20T02:12:48.823Z,2.70
2019-03-20T02:15:16.196Z,2.60
2019-03-20T02:17:43.677Z,2.50
2019-03-20T02:20:13.501Z,2.50
2019-03-20T02:22:40.967Z,2.50
2019-03-20T02:25:09.313Z,2.50
2019-03-20T02:27:36.782Z,2.50
2019-03-20T02:30:05.417Z,2.50
2019-03-20T02:32:33.067Z,2.60
2019-03-20T02:35:00.771Z,2.50
2019-03-20T02:37:28.144Z,2.50
2019-03-20T02:39:56.156Z,2.50
2019-03-20T02:42:23.853Z,2.50
2019-03-20T02:44:51.516Z,2.40
2019-03-20T02:47:19.380Z,2.30
2019-03-20T02:49:47.171Z,2.30
2019-03-20T02:52:15.260Z,2.30
2019-03-20T02:54:42.736Z,2.40
2019-03-20T02:57:10.416Z,2.30
2019-03-20T02:59:38.010Z,2.20
2019-03-20T03:02:05.591Z,2.20
2019-03-20T03:04:33.336Z,2.30
2019-03-20T03:07:00.786Z,2.20
2019-03-20T03:09:28.658Z,2.10
2019-03-20T03:11:55.987Z,2.20
2019-03-20T03:14:24.389Z,2.20
2019-03-20T03:16:51.840Z,2.10
2019-03-20T03:19:19.480Z,1.90
2019-03-20T03:21:47.155Z,1.90
2019-03-20T03:24:14.664Z,1.90
2019-03-20T03:26:42.390Z,2.00
2019-03-20T03:29:10.240Z,2.10
2019-03-20T03:31:37.640Z,2.10
2019-03-20T03:34:05.659Z,2.10
2019-03-20T03:36:33.273Z,2.10
2019-03-20T03:39:00.787Z,1.90
2019-03-20T03:41:29.004Z,1.90
2019-03-20T03:43:56.630Z,1.80
2019-03-20T03:46:24.424Z,1.70
2019-03-20T03:48:52.113Z,1.60
2019-03-20T03:51:19.611Z,1.60
2019-03-20T03:53:47.270Z,1.50
2019-03-20T03:56:14.953Z,1.70
2019-03-20T03:58:42.798Z,1.70
2019-03-20T04:01:23.731Z,1.70
2019-03-20T04:03:51.312Z,1.70
2019-03-20T04:06:19.029Z,1.70
2019-03-20T04:08:46.333Z,1.60
2019-03-20T04:11:13.945Z,1.70
2019-03-20T04:13:42.094Z,1.80
2019-03-20T04:16:09.746Z,1.80
2019-03-20T04:18:37.771Z,1.80
2019-03-20T04:21:05.117Z,1.80
2019-03-20T04:23:33.965Z,1.80
2019-03-20T04:26:01.324Z,1.70
2019-03-20T04:28:28.717Z,1.60
2019-03-20T04:30:56.116Z,1.60
2019-03-20T04:33:23.720Z,1.60
2019-03-20T04:35:51.049Z,1.60
2019-03-20T04:38:18.561Z,1.50
2019-03-20T04:40:59.198Z,1.50
2019-03-20T04:43:27.451Z,1.60
2019-03-20T04:45:55.884Z,1.60
2019-03-20T04:48:23.269Z,1.60
2019-03-20T04:50:50.937Z,1.60
2019-03-20T04:53:18.306Z,1.50
2019-03-20T04:55:45.654Z,1.50
2019-03-20T04:58:14.286Z,1.50
2019-03-20T05:00:42.091Z,1.40
2019-03-20T05:03:09.436Z,1.40
2019-03-20T05:05:37.058Z,1.60
2019-03-20T05:08:04.668Z,1.60
2019-03-20T05:10:32.431Z,1.70
2019-03-20T05:12:59.814Z,1.60
2019-03-20T05:15:27.261Z,1.60
2019-03-20T05:17:55.522Z,1.60
2019-03-20T05:20:22.962Z,1.40
2019-03-20T05:22:50.934Z,1.20
2019-03-20T05:25:21.169Z,1.00
2019-03-20T05:27:48.847Z,0.80
2019-03-20T05:30:16.392Z,0.90
2019-03-20T05:32:43.782Z,1.00
2019-03-20T05:35:11.700Z,1.10
2019-03-20T05:37:39.302Z,1.10
2019-03-20T05:40:08.372Z,1.10
2019-03-20T05:42:35.734Z,1.20
2019-03-20T05:45:03.903Z,1.20
2019-03-20T05:47:31.680Z,1.10
2019-03-20T05:49:59.158Z,1.20
2019-03-20T05:52:26.523Z,1.30
2019-03-20T05:54:55.055Z,1.10
2019-03-20T05:57:22.489Z,1.10
2019-03-20T05:59:49.864Z,1.20
2019-03-20T06:02:17.382Z,1.20
2019-03-20T06:04:45.085Z,1.10
2019-03-20T06:07:21.193Z,1.20
2019-03-20T06:09:42.406Z,1.20
2019-03-20T06:12:09.952Z,1.20
2019-03-20T06:14:37.406Z,1.30
2019-03-20T06:17:05.014Z,1.30
2019-03-20T06:19:32.640Z,1.30
2019-03-20T06:22:00.357Z,1.30
2019-03-20T06:24:27.685Z,1.40
2019-03-20T06:26:55.576Z,1.40
2019-03-20T06:29:22.944Z,1.30
2019-03-20T06:31:51.073Z,1.30
2019-03-20T06:34:18.586Z,1.30
2019-03-20T06:36:46.064Z,1.20
2019-03-20T06:39:13.390Z,1.10
2019-03-20T06:41:40.870Z,1.10
2019-03-20T06:44:08.203Z,1.10
2019-03-20T06:46:35.934Z,1.10
2019-03-20T06:49:03.337Z,1.00
2019-03-20T06:51:30.810Z,0.90
2019-03-20T06:53:58.142Z,1.00
2019-03-20T06:56:25.765Z,1.00
2019-03-20T06:59:48.835Z,1.10
2019-03-20T07:02:17.583Z,1.10
2019-03-20T07:04:54.566Z,1.30
2019-03-20T07:07:43.491Z,1.30
2019-03-20T07:10:21.520Z,1.30
2019-03-20T07:12:49.638Z,1.30
2019-03-20T07:15:17.628Z,1.30
2019-03-20T07:17:45.017Z,1.30
2019-03-20T07:20:13.194Z,1.30
2019-03-20T07:22:41.733Z,1.30
2019-03-20T07:25:09.079Z,1.40
2019-03-20T07:27:36.773Z,1.50
2019-03-20T07:30:04.859Z,1.50
2019-03-20T07:32:32.670Z,1.50
2019-03-20T07:35:00.365Z,1.60
2019-03-20T07:37:28.205Z,1.60
2019-03-20T07:39:56.595Z,1.70
2019-03-20T07:42:36.742Z,1.80
2019-03-20T07:45:05.084Z,1.90
2019-03-20T07:47:33.336Z,1.90
2019-03-20T07:50:00.643Z,2.00
2019-03-20T07:52:28.305Z,2.10
2019-03-20T07:54:55.820Z,2.10
2019-03-20T07:57:23.406Z,2.20
2019-03-20T07:59:50.928Z,2.20
2019-03-20T08:02:18.274Z,2.30
2019-03-20T08:04:46.320Z,2.30
2019-03-20T08:07:13.828Z,2.30
2019-03-20T08:09:41.328Z,2.40
2019-03-20T08:12:09.321Z,2.50
2019-03-20T08:14:37.082Z,2.50
2019-03-20T08:17:04.754Z,2.60
2019-03-20T08:19:32.121Z,2.60
2019-03-20T08:21:59.473Z,2.70
2019-03-20T08:24:27.187Z,2.80
2019-03-20T08:26:54.803Z,2.90
2019-03-20T08:29:22.260Z,3.00
2019-03-20T08:31:49.568Z,3.00
2019-03-20T08:34:16.911Z,3.00
2019-03-20T08:36:44.430Z,3.10
2019-03-20T08:39:12.248Z,3.10
2019-03-20T08:41:40.216Z,3.50
2019-03-20T08:44:07.818Z,3.50
2019-03-20T08:46:35.520Z,3.50
2019-03-20T08:49:02.940Z,3.50
2019-03-20T08:51:31.670Z,3.60
2019-03-20T08:53:59.034Z,3.70
2019-03-20T08:56:26.574Z,4.10
2019-03-20T08:58:54.236Z,4.10
2019-03-20T09:01:28.624Z,4.10
2019-03-20T09:03:51.706Z,4.10
2019-03-20T09:06:19.149Z,4.20
2019-03-20T09:08:46.716Z,4.20
2019-03-20T09:11:14.186Z,4.40
2019-03-20T09:13:41.744Z,4.40
2019-03-20T09:16:09.210Z,4.50
2019-03-20T09:18:37.044Z,4.50
2019-03-20T09:21:04.589Z,4.60
2019-03-20T09:23:32.802Z,4.60
2019-03-20T09:26:00.279Z,4.70
2019-03-20T09:28:28.210Z,4.90
2019-03-20T09:30:55.996Z,5.00
2019-03-20T09:33:25.169Z,5.10
2019-03-20T09:35:52.874Z,5.10
2019-03-20T09:38:21.132Z,5.20
2019-03-20T09:40:48.571Z,5.30
2019-03-20T09:43:15.923Z,5.40
2019-03-20T09:45:43.300Z,5.40
2019-03-20T09:48:11.085Z,5.50
2019-03-20T09:50:38.560Z,5.50
2019-03-20T09:53:06.519Z,5.60
2019-03-20T09:55:33.872Z,5.70
2019-03-20T09:58:11.184Z,5.80
2019-03-20T10:00:31.216Z,5.90
2019-03-20T10:02:58.612Z,6.00
2019-03-20T10:05:26.024Z,6.10
2019-03-20T10:07:53.908Z,6.20
2019-03-20T10:10:21.593Z,6.30
2019-03-20T10:12:49.526Z,6.40
2019-03-20T10:15:17.326Z,6.50
2019-03-20T10:17:44.755Z,6.70
2019-03-20T10:20:13.715Z,6.70
2019-03-20T10:22:41.164Z,6.80
2019-03-20T10:25:08.863Z,6.90
2019-03-20T10:27:37.210Z,7.00
2019-03-20T10:30:07.028Z,7.20
2019-03-20T10:32:34.768Z,7.20
2019-03-20T10:35:02.355Z,7.30
2019-03-20T10:37:30.167Z,7.40
2019-03-20T10:39:57.681Z,7.50
2019-03-20T10:42:25.340Z,7.50
2019-03-20T10:44:52.835Z,7.60
2019-03-20T10:47:21.002Z,7.60
2019-03-20T10:49:48.768Z,7.70
2019-03-20T10:52:16.400Z,7.80
2019-03-20T10:54:44.004Z,7.90
2019-03-20T10:57:11.380Z,8.00
2019-03-20T10:59:39.192Z,8.00
2019-03-20T11:02:06.671Z,8.10
2019-03-20T11:04:34.228Z,8.20
2019-03-20T11:07:01.947Z,8.20
2019-03-20T11:09:29.418Z,8.20
2019-03-20T11:11:56.948Z,8.30
2019-03-20T11:14:25.066Z,8.30
2019-03-20T11:16:52.446Z,8.40
2019-03-20T11:19:20.283Z,8.50
2019-03-20T11:21:48.039Z,8.60
2019-03-20T11:24:15.433Z,8.60
2019-03-20T11:26:43.493Z,8.60
2019-03-20T11:29:11.233Z,8.70
2019-03-20T11:31:39.016Z,8.70
2019-03-20T11:34:06.548Z,8.80
2019-03-20T11:36:34.733Z,8.80
2019-03-20T11:39:07.938Z,8.90
2019-03-20T11:41:35.564Z,9.00
2019-03-20T11:44:03.136Z,9.00
2019-03-20T11:46:30.676Z,9.10
2019-03-20T11:48:59.906Z,9.20
2019-03-20T11:51:27.804Z,9.30
2019-03-20T11:53:55.166Z,9.40
2019-03-20T11:56:22.641Z,9.50
2019-03-20T11:58:50.889Z,9.50
2019-03-20T12:01:18.400Z,9.50
2019-03-20T12:03:45.871Z,9.60
2019-03-20T12:06:13.255Z,9.60
2019-03-20T12:08:41.102Z,9.60
2019-03-20T12:11:08.684Z,9.70
2019-03-20T12:13:46.049Z,9.80
2019-03-20T12:16:13.681Z,9.80
2019-03-20T12:18:41.046Z,9.90
2019-03-20T12:21:08.532Z,9.90
2019-03-20T12:23:36.379Z,10.00
2019-03-20T12:26:04.149Z,10.00
2019-03-20T12:28:31.710Z,10.10
2019-03-20T12:30:59.199Z,10.20
2019-03-20T12:33:27.231Z,10.20
2019-03-20T12:35:54.568Z,10.20
2019-03-20T12:38:21.905Z,10.20
2019-03-20T12:40:49.318Z,10.20
2019-03-20T12:43:16.884Z,10.20
2019-03-20T12:45:44.811Z,10.20
2019-03-20T12:48:12.687Z,10.40
2019-03-20T12:50:40.751Z,10.40
2019-03-20T12:53:08.402Z,10.40
2019-03-20T12:55:36.252Z,10.50
2019-03-20T12:58:03.667Z,10.50
2019-03-20T13:00:31.052Z,10.50
2019-03-20T13:02:59.158Z,10.50
2019-03-20T13:05:26.734Z,10.60
2019-03-20T13:07:54.219Z,10.60
2019-03-20T13:10:21.786Z,10.60
2019-03-20T13:12:49.364Z,10.60
2019-03-20T13:15:18.912Z,10.70
2019-03-20T13:17:46.311Z,10.70
2019-03-20T13:20:13.684Z,10.80
2019-03-20T13:22:41.303Z,10.80
2019-03-20T13:25:09.513Z,10.80
2019-03-20T13:27:36.966Z,10.80
2019-03-20T13:30:08.057Z,10.90
2019-03-20T13:32:35.503Z,10.90
2019-03-20T13:35:03.142Z,10.90
2019-03-20T13:37:30.876Z,10.90
2019-03-20T13:39:58.249Z,11.00
2019-03-20T13:42:25.733Z,11.00
2019-03-20T13:44:53.130Z,11.10
2019-03-20T13:47:20.629Z,11.10
2019-03-20T13:49:48.142Z,11.10
2019-03-20T13:52:18.066Z,11.20
2019-03-20T13:54:45.449Z,11.20
2019-03-20T13:57:12.794Z,11.20
2019-03-20T13:59:40.685Z,11.20
2019-03-20T14:02:08.043Z,11.30
2019-03-20T14:04:36.263Z,11.20
2019-03-20T14:07:04.036Z,11.20
2019-03-20T14:09:31.796Z,11.20
2019-03-20T14:11:59.611Z,11.20
2019-03-20T14:14:27.395Z,11.20
2019-03-20T14:16:55.180Z,11.20
2019-03-20T14:19:23.698Z,11.30
2019-03-20T14:21:51.216Z,11.40
2019-03-20T14:24:19.936Z,11.30
2019-03-20T14:26:51.710Z,11.30
2019-03-20T14:29:19.854Z,11.40
2019-03-20T14:31:48.116Z,11.40
2019-03-20T14:34:15.963Z,11.40
2019-03-20T14:36:43.853Z,11.40
2019-03-20T14:39:11.572Z,11.40
2019-03-20T14:41:39.509Z,11.40
2019-03-20T14:44:07.555Z,11.40
2019-03-20T14:46:35.448Z,11.60
2019-03-20T14:49:03.771Z,11.70
2019-03-20T14:51:32.050Z,11.70
2019-03-20T14:53:59.904Z,11.70
2019-03-20T14:56:27.808Z,11.60
2019-03-20T14:58:55.978Z,11.60
2019-03-20T15:01:23.889Z,11.60
2019-03-20T15:03:52.683Z,11.60
2019-03-20T15:06:20.406Z,11.60
2019-03-20T15:08:48.473Z,11.50
2019-03-20T15:11:16.641Z,11.60
2019-03-20T15:13:44.654Z,11.60
2019-03-20T15:16:12.747Z,11.50
2019-03-20T15:18:40.382Z,11.60
2019-03-20T15:21:08.388Z,11.50
2019-03-20T15:23:36.524Z,11.60
2019-03-20T15:26:04.522Z,11.60
2019-03-20T15:28:32.355Z,11.60
2019-03-20T15:31:00.876Z,11.70
2019-03-20T15:33:29.542Z,11.60
2019-03-20T15:35:58.192Z,11.70
2019-03-20T15:38:26.080Z,11.80
2019-03-20T15:40:56.391Z,11.70
2019-03-20T15:43:23.359Z,11.70
2019-03-20T15:45:50.879Z,11.70
2019-03-20T15:48:18.516Z,11.70
2019-03-20T15:50:46.107Z,11.70
2019-03-20T15:53:13.937Z,11.60
2019-03-20T15:55:41.553Z,11.70
2019-03-20T15:58:09.229Z,11.70
2019-03-20T16:00:36.792Z,11.70
2019-03-20T16:03:07.452Z,11.60
2019-03-20T16:05:35.186Z,11.70
2019-03-20T16:08:02.584Z,11.70
2019-03-20T16:10:30.457Z,11.70
2019-03-20T16:12:58.370Z,11.60
2019-03-20T16:15:26.185Z,11.60
2019-03-20T16:17:54.146Z,11.60
2019-03-20T16:20:22.024Z,11.60
2019-03-20T16:22:49.594Z,11.60
2019-03-20T16:25:17.109Z,11.60
2019-03-20T16:27:45.007Z,11.60
2019-03-20T16:30:15.210Z,11.50
2019-03-20T16:32:42.701Z,11.50
2019-03-20T16:35:10.337Z,11.50
2019-03-20T16:37:38.138Z,11.50
2019-03-20T16:40:08.592Z,11.40
2019-03-20T16:42:36.590Z,11.40
2019-03-20T16:45:04.937Z,11.40
2019-03-20T16:47:32.438Z,11.40
2019-03-20T16:50:00.362Z,11.40
2019-03-20T16:52:28.878Z,11.40
2019-03-20T16:54:56.667Z,11.40
2019-03-20T16:57:24.052Z,11.30
2019-03-20T16:59:51.409Z,11.30
2019-03-20T17:02:18.761Z,11.30
2019-03-20T17:04:46.168Z,11.30
2019-03-20T17:07:14.277Z,11.30
2019-03-20T17:09:41.769Z,11.20
2019-03-20T17:12:09.322Z,11.20
2019-03-20T17:14:37.211Z,11.20
2019-03-20T17:17:04.595Z,11.20
2019-03-20T17:19:32.329Z,11.10
2019-03-20T17:22:00.186Z,11.10
2019-03-20T17:24:27.666Z,11.00
2019-03-20T17:26:55.636Z,11.00
2019-03-20T17:29:23.483Z,11.00
2019-03-20T17:31:52.694Z,10.90
2019-03-20T17:34:20.595Z,10.90
2019-03-20T17:36:48.423Z,10.80
2019-03-20T17:39:16.977Z,10.80
2019-03-20T17:41:44.876Z,10.80
2019-03-20T17:44:12.517Z,10.80
2019-03-20T17:46:39.878Z,10.80
2019-03-20T17:49:07.480Z,10.70
2019-03-20T17:51:35.215Z,10.70
2019-03-20T17:54:02.757Z,10.60
2019-03-20T17:56:30.109Z,10.50
2019-03-20T17:58:58.213Z,10.40
2019-03-20T18:01:25.696Z,10.50
2019-03-20T18:03:53.452Z,10.50
2019-03-20T18:06:20.861Z,10.50
2019-03-20T18:08:48.656Z,10.40
2019-03-20T18:11:16.646Z,10.30
2019-03-20T18:13:44.015Z,10.30
2019-03-20T18:16:11.535Z,10.30
2019-03-20T18:18:39.226Z,10.30
2019-03-20T18:21:07.526Z,10.20
2019-03-20T18:23:35.435Z,10.00
2019-03-20T18:26:02.944Z,10.20
2019-03-20T18:28:30.786Z,10.30
2019-03-20T18:30:58.806Z,10.30
2019-03-20T18:33:26.248Z,10.30
2019-03-20T18:35:53.784Z,10.40
2019-03-20T18:38:21.362Z,10.40
2019-03-20T18:40:49.158Z,10.30
2019-03-20T18:43:17.043Z,10.10
2019-03-20T18:45:44.753Z,9.90
2019-03-20T18:48:12.578Z,9.80
2019-03-20T18:50:40.255Z,9.80
2019-03-20T18:53:07.690Z,9.80
2019-03-20T18:55:35.452Z,9.70
2019-03-20T18:58:03.407Z,9.80
2019-03-20T19:00:30.766Z,9.80
2019-03-20T19:02:58.517Z,9.80
2019-03-20T19:05:59.587Z,9.80
2019-03-20T19:08:27.093Z,9.80
2019-03-20T19:10:54.654Z,9.80
2019-03-20T19:13:24.379Z,9.60
2019-03-20T19:15:52.350Z,9.70
2019-03-20T19:18:20.089Z,9.70
2019-03-20T19:20:47.601Z,9.60
2019-03-20T19:23:15.461Z,9.60
2019-03-20T19:25:42.854Z,9.50
2019-03-20T19:28:10.493Z,9.50
2019-03-20T19:30:37.895Z,9.40
2019-03-20T19:33:05.450Z,9.40
2019-03-20T19:35:33.067Z,9.30
2019-03-20T19:38:00.550Z,9.40
2019-03-20T19:40:29.397Z,9.30
2019-03-20T19:42:56.751Z,9.30
2019-03-20T19:45:24.600Z,9.20
2019-03-20T19:47:52.200Z,9.00
2019-03-20T19:50:19.604Z,9.00
2019-03-20T19:52:47.051Z,9.00
2019-03-20T19:55:14.647Z,9.00
2019-03-20T19:57:42.627Z,9.00
2019-03-20T20:00:12.835Z,8.90
2019-03-20T20:02:40.508Z,8.90
2019-03-20T20:05:15.653Z,8.90
2019-03-20T20:07:37.636Z,8.80
2019-03-20T20:10:05.641Z,8.80
2019-03-20T20:12:33.893Z,8.70
2019-03-20T20:15:01.683Z,8.60
2019-03-20T20:17:30.178Z,8.30
2019-03-20T20:19:57.594Z,8.10
2019-03-20T20:22:25.148Z,8.20
2019-03-20T20:24:52.599Z,8.20
2019-03-20T20:27:20.111Z,8.30
2019-03-20T20:29:47.840Z,8.30
2019-03-20T20:32:15.371Z,8.30
2019-03-20T20:34:42.855Z,8.30
2019-03-20T20:37:10.257Z,8.20
2019-03-20T20:39:37.628Z,8.10
2019-03-20T20:42:05.238Z,8.00
2019-03-20T20:44:33.220Z,7.90
2019-03-20T20:47:00.748Z,8.00
2019-03-20T20:49:28.118Z,7.90
2019-03-20T20:51:55.497Z,7.90
2019-03-20T20:54:22.838Z,7.90
2019-03-20T20:56:50.699Z,7.90
2019-03-20T20:59:18.254Z,7.90
2019-03-20T21:01:45.785Z,7.90
2019-03-20T21:04:13.265Z,7.80
2019-03-20T21:06:40.591Z,7.80
2019-03-20T21:09:08.057Z,7.80
2019-03-20T21:11:35.872Z,7.70
2019-03-20T21:14:03.449Z,7.60
2019-03-20T21:16:32.042Z,7.60
2019-03-20T21:19:34.670Z,7.50
2019-03-20T21:22:41.354Z,7.40
2019-03-20T21:25:09.542Z,7.40
2019-03-20T21:28:29.302Z,7.30
2019-03-20T21:31:19.465Z,7.20
2019-03-20T21:34:53.138Z,7.10
2019-03-20T21:38:02.378Z,7.00
2019-03-20T21:40:33.412Z,6.80
2019-03-20T21:43:54.136Z,6.80
2019-03-20T21:46:58.100Z,6.80
2019-03-20T21:49:26.302Z,6.80
2019-03-20T21:51:54.404Z,6.70
2019-03-20T21:54:58.688Z,6.70
2019-03-20T21:57:44.349Z,6.80
2019-03-20T22:00:44.680Z,6.70
2019-03-20T22:03:12.819Z,6.70
2019-03-20T22:06:44.755Z,6.70
2019-03-20T22:09:51.186Z,6.70
2019-03-20T22:12:23.195Z,6.70
2019-03-20T22:15:05.478Z,6.60
2019-03-20T22:18:10.665Z,6.60
2019-03-20T22:20:52.223Z,6.50
2019-03-20T22:23:46.466Z,6.50
2019-03-20T22:26:48.024Z,6.50
2019-03-20T22:29:23.746Z,6.30
2019-03-20T22:32:51.376Z,6.10
2019-03-20T22:35:43.688Z,6.00
2019-03-20T22:38:32.754Z,6.10
2019-03-20T22:41:52.634Z,6.10
2019-03-20T22:44:22.037Z,6.10
2019-03-20T22:47:46.469Z,6.10
2019-03-20T22:50:34.141Z,6.20
2019-03-20T22:53:31.880Z,6.20
2019-03-20T22:56:26.168Z,6.20
2019-03-20T22:58:55.090Z,6.30
2019-03-20T23:01:35.291Z,6.30
2019-03-20T23:04:08.592Z,6.40
2019-03-20T23:06:36.611Z,6.30
2019-03-20T23:09:06.888Z,6.20
2019-03-20T23:11:36.755Z,6.20
2019-03-20T23:14:04.689Z,6.20
2019-03-20T23:16:33.013Z,6.20
2019-03-20T23:19:01.345Z,6.10
2019-03-20T23:21:29.464Z,6.10
2019-03-20T23:23:57.523Z,6.10
2019-03-20T23:26:25.778Z,6.10
2019-03-20T23:28:53.860Z,6.10
2019-03-20T23:31:22.183Z,6.10
2019-03-20T23:33:50.375Z,6.10
2019-03-20T23:36:18.876Z,6.00
2019-03-20T23:38:46.953Z,6.00
2019-03-20T23:41:15.046Z,5.90
2019-03-20T23:43:52.391Z,5.80
2019-03-20T23:46:13.115Z,5.90
2019-03-20T23:48:46.535Z,5.80
2019-03-20T23:51:16.537Z,5.70
2019-03-20T23:53:47.579Z,5.60
2019-03-20T23:56:15.580Z,5.60
2019-03-20T23:58:43.651Z,5.60
